Weather History for Orr, MN

Change the Weather History Date:

Tuesday, March 19, 2013

  Actual Average Record
Temperature  
Mean Temperature 12 °F -  
Max Temperature 17 °F 33 °F 75 °F (2012)
Min Temperature 6 °F 12 °F 1 °F (2007)
Degree Days  
Heating Degree Days 54    
Moisture  
Dew Point 3 °F    
Average Humidity 69    
Maximum Humidity 85    
Minimum Humidity 53    
Precipitation  
Precipitation 0.00 in - - ()
Sea Level Pressure  
Sea Level Pressure 29.81 in    
Wind  
Wind Speed 17 mph (WNW)    
Max Wind Speed 22 mph    
Max Gust Speed 29 mph    
Visibility 7 miles    
Events Snow    
Averages and records for this station are not official NWS values.
T = Trace of Precipitation, MM = Missing Value Source: NWS Daily Summary

Daily Weather History Graph

Daily Weather History Graph

Search for Another Location

Airport:

Trip Planner

Search our weather history database for the weather conditions in past years. The results will help you decide how hot, cold, wet, or windy it might be!

Date:

Astronomy

Mar. 19, 2013 Rise Set
Actual Time 7:15 AM CDT 7:23 PM CDT
Civil Twilight 6:44 AM CDT 7:54 PM CDT
Nautical Twilight 6:08 AM CDT 8:30 PM CDT
Astronomical Twilight 5:31 AM CDT 9:08 PM CDT
Moon 11:41 AM CDT (3/19) 2:35 AM CDT (3/19)
Length of Visible Light 13h 09m
Length of Day
12h 07m
Waxing Crescent, 50% of the Moon is Illuminated
Mar 19
Waxing Crescent
Mar 19
First Quarter
Mar 27
Full
Apr 2
Last Quarter
Apr 10
New

Hourly Weather History & Observations

Time (CDT) Temp. Windchill Dew Point Humidity Pressure Visibility Wind Dir Wind Speed Gust Speed Precip Events Conditions
12:13 AM 12.2 °F -3.1 °F 8.6 °F 85% 29.57 in 5.0 mi WNW 13.8 mph 21.9 mph N/A Snow Light Snow
12:33 AM 12.2 °F -4.3 °F 8.6 °F 85% 29.58 in 4.0 mi WNW 16.1 mph 23.0 mph N/A Snow Light Snow
12:53 AM 12.2 °F -4.3 °F 8.6 °F 85% 29.58 in 3.0 mi WNW 16.1 mph 23.0 mph N/A Snow Light Snow
1:13 AM 12.2 °F -5.8 °F 6.8 °F 79% 29.59 in 4.0 mi WNW 19.6 mph 24.2 mph N/A Snow Light Snow
1:33 AM 12.2 °F -4.8 °F 6.8 °F 79% 29.59 in 5.0 mi WNW 17.3 mph 23.0 mph N/A Snow Light Snow
1:53 AM 10.4 °F -5.4 °F 6.8 °F 85% 29.60 in 5.0 mi WNW 13.8 mph 25.3 mph N/A Snow Light Snow
2:13 AM 10.4 °F -8.2 °F 6.8 °F 85% 29.61 in 2.5 mi WNW 19.6 mph 24.2 mph N/A Snow Light Snow
2:33 AM 10.4 °F -7.7 °F 6.8 °F 85% 29.62 in 5.0 mi WNW 18.4 mph 23.0 mph N/A Snow Light Snow
2:53 AM 10.4 °F -7.2 °F 6.8 °F 85% 29.63 in 5.0 mi WNW 17.3 mph 25.3 mph N/A Snow Light Snow
3:13 AM 10.4 °F -8.2 °F 5.0 °F 79% 29.63 in 5.0 mi WNW 19.6 mph 27.6 mph N/A Snow Light Snow
3:33 AM 8.6 °F -9.5 °F 5.0 °F 85% 29.64 in 4.0 mi WNW 17.3 mph 21.9 mph N/A Snow Light Snow
3:53 AM 8.6 °F -10.0 °F 3.2 °F 79% 29.64 in 5.0 mi WNW 18.4 mph 23.0 mph N/A Snow Light Snow
4:13 AM 8.6 °F -8.9 °F 3.2 °F 79% 29.65 in 5.0 mi WNW 16.1 mph 23.0 mph N/A   Haze
4:33 AM 8.6 °F -8.9 °F 3.2 °F 79% 29.66 in 4.0 mi WNW 16.1 mph 24.2 mph N/A   Haze
4:53 AM 8.6 °F -9.5 °F 3.2 °F 79% 29.67 in 4.0 mi WNW 17.3 mph - N/A   Haze
5:13 AM 8.6 °F -10.0 °F 3.2 °F 79% 29.68 in 4.0 mi WNW 18.4 mph 25.3 mph N/A   Haze
5:33 AM 8.6 °F -10.0 °F 3.2 °F 79% 29.69 in 7.0 mi WNW 18.4 mph 26.5 mph N/A   Overcast
5:53 AM 8.6 °F -9.5 °F 3.2 °F 79% 29.69 in 7.0 mi WNW 17.3 mph 26.5 mph N/A   Overcast
6:13 AM 8.6 °F -8.9 °F 3.2 °F 79% 29.70 in 5.0 mi WNW 16.1 mph 23.0 mph N/A   Haze
6:33 AM 6.8 °F -11.3 °F 3.2 °F 85% 29.72 in 4.0 mi WNW 16.1 mph 24.2 mph N/A   Mostly Cloudy
6:53 AM 6.8 °F -11.3 °F 1.4 °F 79% 29.73 in 4.0 mi WNW 16.1 mph 21.9 mph N/A Snow Light Snow
7:13 AM 6.8 °F -10.7 °F 1.4 °F 79% 29.74 in 4.0 mi WNW 15.0 mph 21.9 mph N/A   Mostly Cloudy
7:33 AM 6.8 °F -11.3 °F 1.4 °F 79% 29.75 in 7.0 mi WNW 16.1 mph 23.0 mph N/A   Mostly Cloudy
7:53 AM 6.8 °F -11.3 °F 1.4 °F 79% 29.76 in 7.0 mi WNW 16.1 mph 23.0 mph N/A   Overcast
8:13 AM 6.8 °F -11.8 °F 1.4 °F 79% 29.77 in 7.0 mi WNW 17.3 mph 21.9 mph N/A   Overcast
8:33 AM 6.8 °F -10.7 °F 1.4 °F 79% 29.77 in 7.0 mi WNW 15.0 mph 20.7 mph N/A   Overcast
8:53 AM 6.8 °F -10.0 °F 1.4 °F 79% 29.78 in 7.0 mi WNW 13.8 mph - N/A   Overcast
9:13 AM 6.8 °F -11.8 °F -0.4 °F 72% 29.79 in 10.0 mi WNW 17.3 mph - N/A   Overcast
9:33 AM 6.8 °F -10.7 °F -0.4 °F 72% 29.80 in 10.0 mi WNW 15.0 mph 19.6 mph N/A   Mostly Cloudy
9:54 AM 6.8 °F -11.3 °F 1.4 °F 79% 29.80 in 10.0 mi WNW 16.1 mph - N/A   Mostly Cloudy
10:13 AM 6.8 °F -10.0 °F -0.4 °F 72% 29.81 in 10.0 mi WNW 13.8 mph 23.0 mph N/A   Scattered Clouds
10:33 AM 6.8 °F -11.8 °F -0.4 °F 72% 29.81 in 7.0 mi WNW 17.3 mph 23.0 mph N/A   Scattered Clouds
10:53 AM 6.8 °F -11.3 °F -0.4 °F 72% 29.82 in 10.0 mi WNW 16.1 mph 23.0 mph N/A   Clear
11:13 AM 8.6 °F -10.0 °F -0.4 °F 67% 29.82 in 7.0 mi WNW 18.4 mph 24.2 mph N/A   Clear
11:33 AM 10.4 °F -5.4 °F 1.4 °F 67% 29.82 in 10.0 mi WNW 13.8 mph 21.9 mph N/A   Clear
11:53 AM 12.2 °F -3.7 °F 1.4 °F 62% 29.82 in 7.0 mi WNW 15.0 mph 24.2 mph N/A   Clear
12:13 PM 12.2 °F -6.3 °F 3.2 °F 67% 29.83 in 7.0 mi WNW 20.7 mph 27.6 mph N/A   Clear
12:33 PM 14.0 °F -2.0 °F 3.2 °F 62% 29.83 in 10.0 mi WNW 16.1 mph 21.9 mph N/A   Clear
12:53 PM 15.8 °F -0.6 °F 3.2 °F 58% 29.83 in 7.0 mi WNW 18.4 mph 24.2 mph N/A   Clear
1:13 PM 15.8 °F -1.5 °F 3.2 °F 58% 29.84 in 5.0 mi NW 20.7 mph 26.5 mph N/A   Haze
1:33 PM 15.8 °F -1.9 °F 3.2 °F 58% 29.84 in 5.0 mi NW 21.9 mph 28.8 mph N/A   Haze
1:53 PM 15.8 °F -1.1 °F 3.2 °F 58% 29.85 in 4.0 mi WNW 19.6 mph 27.6 mph N/A   Haze
2:13 PM 15.8 °F -1.5 °F 3.2 °F 58% 29.86 in 4.0 mi WNW 20.7 mph 27.6 mph N/A   Haze
2:33 PM 17.6 °F 1.3 °F 3.2 °F 53% 29.86 in 5.0 mi WNW 19.6 mph 28.8 mph N/A   Haze
2:53 PM 17.6 °F 1.3 °F 3.2 °F 53% 29.86 in 5.0 mi WNW 19.6 mph 28.8 mph N/A   Haze
3:13 PM 17.6 °F 1.7 °F 3.2 °F 53% 29.87 in 5.0 mi WNW 18.4 mph 26.5 mph N/A   Haze
3:33 PM 17.6 °F 1.3 °F 3.2 °F 53% 29.87 in 5.0 mi WNW 19.6 mph 24.2 mph N/A   Haze
3:53 PM 17.6 °F 1.7 °F 5.0 °F 58% 29.88 in 7.0 mi WNW 18.4 mph 25.3 mph N/A   Clear
4:13 PM 17.6 °F 0.5 °F 3.2 °F 53% 29.89 in 5.0 mi WNW 21.9 mph 28.8 mph N/A   Haze
4:33 PM 17.6 °F 2.2 °F 3.2 °F 53% 29.90 in 7.0 mi NW 17.3 mph 28.8 mph N/A   Clear
4:53 PM 15.8 °F -0.6 °F 3.2 °F 58% 29.91 in 5.0 mi WNW 18.4 mph 26.5 mph N/A   Haze
5:13 PM 15.8 °F -1.1 °F 3.2 °F 58% 29.92 in 5.0 mi WNW 19.6 mph 26.5 mph N/A   Haze
5:33 PM 15.8 °F 0.3 °F 3.2 °F 58% 29.92 in 5.0 mi WNW 16.1 mph 27.6 mph N/A   Haze
5:53 PM 15.8 °F 0.3 °F 3.2 °F 58% 29.93 in 10.0 mi WNW 16.1 mph 25.3 mph N/A   Clear
6:13 PM 15.8 °F 0.3 °F 3.2 °F 58% 29.94 in 7.0 mi WNW 16.1 mph 26.5 mph N/A   Clear
6:33 PM 15.8 °F 0.3 °F 3.2 °F 58% 29.94 in 10.0 mi WNW 16.1 mph 26.5 mph N/A   Scattered Clouds
6:53 PM 15.8 °F 2.1 °F 3.2 °F 58% 29.95 in 10.0 mi WNW 12.7 mph 23.0 mph N/A   Mostly Cloudy
7:13 PM 14.0 °F -2.0 °F 3.2 °F 62% 29.95 in 10.0 mi WNW 16.1 mph 20.7 mph N/A   Mostly Cloudy
7:33 PM 14.0 °F 0.5 °F 3.2 °F 62% 29.96 in 10.0 mi WNW 11.5 mph 17.3 mph N/A   Overcast
7:53 PM 12.2 °F -4.8 °F 3.2 °F 67% 29.97 in 10.0 mi WNW 17.3 mph 24.2 mph N/A   Overcast
8:13 PM 12.2 °F -4.8 °F 1.4 °F 62% 29.97 in 10.0 mi WNW 17.3 mph 24.2 mph N/A   Overcast
8:34 PM 12.2 °F -5.8 °F 1.4 °F 62% 29.97 in 7.0 mi WNW 19.6 mph 25.3 mph N/A   Overcast
8:53 PM 10.4 °F -6.0 °F 1.4 °F 67% 29.98 in 10.0 mi WNW 15.0 mph 21.9 mph N/A   Overcast
9:13 PM 10.4 °F -7.7 °F -0.4 °F 62% 29.98 in 10.0 mi WNW 18.4 mph 25.3 mph N/A   Mostly Cloudy
9:33 PM 8.6 °F -8.3 °F -0.4 °F 67% 29.98 in 10.0 mi WNW 15.0 mph 25.3 mph N/A   Mostly Cloudy
9:53 PM 8.6 °F -8.9 °F -0.4 °F 67% 29.98 in 10.0 mi WNW 16.1 mph 24.2 mph N/A   Scattered Clouds
10:13 PM 8.6 °F -10.5 °F -2.2 °F 62% 29.98 in 10.0 mi WNW 19.6 mph 23.0 mph N/A   Clear
10:33 PM 8.6 °F -8.3 °F -2.2 °F 62% 29.98 in 10.0 mi WNW 15.0 mph 19.6 mph N/A   Clear
10:53 PM 6.8 °F -11.3 °F -2.2 °F 67% 29.98 in 10.0 mi WNW 16.1 mph 20.7 mph N/A   Clear
11:14 PM 6.8 °F -10.0 °F -2.2 °F 67% 29.98 in 10.0 mi WNW 13.8 mph 20.7 mph N/A   Mostly Cloudy
11:33 PM 6.8 °F -11.8 °F -2.2 °F 67% 29.98 in 10.0 mi WNW 17.3 mph 20.7 mph N/A   Scattered Clouds
11:53 PM 6.8 °F -11.3 °F -2.2 °F 67% 29.98 in 10.0 mi NW 16.1 mph 21.9 mph N/A   Scattered Clouds